Time;durP1;ratioP1;P1;durP2;ratioP2;P2;SDS_P1;SDS_P2;PMS_P1;PMS_P2;Temp;Humidity;BMP_temperature;BMP_pressure;BME280_temperature;BME280_humidity;BME280_pressure;Samples;Min_cycle;Max_cycle;Signal;HPM_P1;HPM_P2
2021/08/11 00:00:59;;;;;;;18.13;11.13;;;;;;;13.19;100.00;101539.91;6271646;28;20055;-77
2021/08/11 00:04:00;;;;;;;20.70;13.52;;;;;;;13.17;100.00;101539.13;6271268;28;20044;-77
2021/08/11 00:07:02;;;;;;;19.95;11.95;;;;;;;13.17;100.00;101540.88;6271171;28;20053;-77
2021/08/11 00:10:06;;;;;;;17.98;12.45;;;;;;;13.18;100.00;101543.47;6271362;28;20048;-77
2021/08/11 00:13:08;;;;;;;26.58;12.98;;;;;;;13.19;100.00;101544.31;6271143;28;20060;-77
2021/08/11 00:16:10;;;;;;;22.13;12.50;;;;;;;13.20;100.00;101540.75;6271294;28;20048;-77
2021/08/11 00:19:11;;;;;;;20.73;11.73;;;;;;;13.16;100.00;101539.19;6271211;28;20057;-77
2021/08/11 00:22:12;;;;;;;16.05;12.00;;;;;;;13.12;100.00;101537.63;6271613;28;20045;-77
2021/08/11 00:25:15;;;;;;;17.52;11.02;;;;;;;13.14;100.00;101541.06;6271149;28;20067;-77
2021/08/11 00:28:16;;;;;;;16.77;12.18;;;;;;;13.08;100.00;101536.09;6271978;28;20050;-77
2021/08/11 00:31:18;;;;;;;17.30;12.48;;;;;;;13.02;100.00;101533.78;6274300;28;20060;-77
2021/08/11 00:34:19;;;;;;;14.32;11.63;;;;;;;13.04;100.00;101534.56;6276542;28;20060;-77
2021/08/11 00:37:20;;;;;;;19.13;12.18;;;;;;;13.02;100.00;101542.53;6276955;28;20048;-77
2021/08/11 00:40:25;;;;;;;18.50;12.38;;;;;;;13.00;100.00;101536.50;6276633;28;20060;-77
2021/08/11 00:43:26;;;;;;;20.02;13.27;;;;;;;12.95;100.00;101534.09;6276903;28;20053;-77
2021/08/11 00:46:28;;;;;;;23.70;12.45;;;;;;;12.93;100.00;101537.72;6276631;28;20057;-77
2021/08/11 00:49:30;;;;;;;15.38;11.13;;;;;;;12.92;100.00;101534.25;6276704;28;20488;-77
2021/08/11 00:52:31;;;;;;;17.15;12.38;;;;;;;12.90;100.00;101540.53;6276383;28;20052;-77
2021/08/11 00:55:36;;;;;;;22.52;12.75;;;;;;;12.89;100.00;101538.81;6276332;28;20151;-77
2021/08/11 00:58:39;;;;;;;16.83;12.52;;;;;;;12.87;100.00;101545.97;6276177;28;20059;-78
2021/08/11 01:01:41;;;;;;;19.40;13.23;;;;;;;12.87;100.00;101545.97;6276711;28;20048;-77
2021/08/11 01:04:43;;;;;;;20.42;13.95;;;;;;;12.85;100.00;101543.41;6275654;28;20412;-78
2021/08/11 01:07:44;;;;;;;18.15;12.75;;;;;;;12.82;100.00;101546.19;6275990;28;20491;-77
2021/08/11 01:10:50;;;;;;;17.50;12.00;;;;;;;12.79;100.00;101542.84;6275906;28;20045;-77
2021/08/11 01:13:51;;;;;;;21.48;11.57;;;;;;;12.76;100.00;101540.34;6275930;28;20132;-77
2021/08/11 01:16:52;;;;;;;19.60;12.02;;;;;;;12.73;100.00;101544.00;6275836;28;20049;-77
2021/08/11 01:19:56;;;;;;;18.38;11.27;;;;;;;12.69;100.00;101545.94;6276285;28;20052;-76
2021/08/11 01:23:01;;;;;;;20.67;12.30;;;;;;;12.62;100.00;101549.78;6275737;28;20535;-76
2021/08/11 01:26:10;;;;;;;15.52;12.35;;;;;;;12.62;100.00;101541.03;6274965;28;20052;-77
2021/08/11 01:29:15;;;;;;;22.48;12.80;;;;;;;12.61;100.00;101539.31;6275757;28;20052;-77
2021/08/11 01:32:25;;;;;;;18.35;12.05;;;;;;;12.58;100.00;101531.56;6275247;28;20053;-77
2021/08/11 01:35:31;;;;;;;17.77;11.90;;;;;;;12.55;100.00;101534.38;6275184;28;20136;-77
2021/08/11 01:38:37;;;;;;;17.05;11.90;;;;;;;12.58;100.00;101542.09;6275229;28;20052;-76
2021/08/11 01:41:46;;;;;;;18.95;13.40;;;;;;;12.57;100.00;101540.41;6274880;28;20063;-77
2021/08/11 01:44:54;;;;;;;19.10;12.40;;;;;;;12.57;100.00;101551.81;6274696;28;20049;-77
2021/08/11 01:48:00;;;;;;;19.13;13.25;;;;;;;12.54;100.00;101553.75;6274843;28;20511;-77
2021/08/11 01:51:04;;;;;;;21.27;12.73;;;;;;;12.51;100.00;101551.25;6274697;28;20049;-77
2021/08/11 01:54:08;;;;;;;25.98;13.48;;;;;;;12.45;100.00;101549.78;6272352;28;20097;-77
2021/08/11 01:57:12;;;;;;;22.70;14.35;;;;;;;12.47;100.00;101541.78;6257730;28;20049;-77
2021/08/11 02:00:13;;;;;;;30.27;13.75;;;;;;;12.45;100.00;101544.50;6265996;28;20053;-76
2021/08/11 02:03:20;;;;;;;18.58;13.38;;;;;;;12.44;100.00;101546.28;6270407;28;20496;-77
2021/08/11 02:06:23;;;;;;;18.35;13.02;;;;;;;12.43;100.00;101543.72;6265725;28;20098;-77
2021/08/11 02:09:27;;;;;;;24.15;12.73;;;;;;;12.43;100.00;101548.97;6273987;28;20075;-77
2021/08/11 02:12:30;;;;;;;18.77;13.27;;;;;;;12.39;100.00;101545.63;6274567;28;20053;-77
2021/08/11 02:15:31;;;;;;;20.77;13.30;;;;;;;12.41;100.00;101546.44;6273620;28;20415;-78
2021/08/11 02:18:33;;;;;;;18.15;13.25;;;;;;;12.39;100.00;101545.63;6274174;28;20056;-77
2021/08/11 02:21:36;;;;;;;27.17;13.98;;;;;;;12.39;100.00;101540.38;6273990;28;20057;-77
2021/08/11 02:24:37;;;;;;;24.55;14.60;;;;;;;12.37;100.00;101544.88;6273411;28;20048;-77
2021/08/11 02:27:45;;;;;;;16.85;12.88;;;;;;;12.38;100.00;101545.72;6267685;28;20127;-77
2021/08/11 02:30:54;;;;;;;18.88;12.95;;;;;;;12.37;100.00;101546.66;6265136;28;20053;-77
2021/08/11 02:34:00;;;;;;;20.38;14.60;;;;;;;12.34;100.00;101542.38;6273445;28;20045;-77
2021/08/11 02:37:10;;;;;;;20.83;14.35;;;;;;;12.35;100.00;101538.84;6273384;28;20045;-77
2021/08/11 02:40:16;;;;;;;20.83;14.88;;;;;;;12.39;100.00;101544.78;6273346;28;20060;-77
2021/08/11 02:43:22;;;;;;;22.77;15.00;;;;;;;12.40;100.00;101542.09;6273315;28;20076;-77
2021/08/11 02:46:26;;;;;;;20.15;14.45;;;;;;;12.39;100.00;101539.50;6273435;28;20041;-77
2021/08/11 02:49:30;;;;;;;19.58;14.40;;;;;;;12.39;100.00;101550.91;6273217;28;20056;-77
2021/08/11 02:52:34;;;;;;;20.98;14.00;;;;;;;12.34;100.00;101544.16;6273517;28;20045;-77
2021/08/11 02:55:37;;;;;;;19.30;12.70;;;;;;;12.38;100.00;101551.84;6272902;28;20053;-77
2021/08/11 02:58:39;;;;;;;21.95;14.10;;;;;;;12.30;100.00;101551.34;6273583;28;20044;-78
2021/08/11 03:01:42;;;;;;;18.10;12.68;;;;;;;12.34;100.00;101544.16;6273198;28;20130;-77
2021/08/11 03:04:43;;;;;;;19.40;12.65;;;;;;;12.33;100.00;101545.94;6272891;28;20053;-78
2021/08/11 03:07:47;;;;;;;16.92;11.95;;;;;;;12.33;100.00;101538.03;6273203;28;20484;-77
2021/08/11 03:10:48;;;;;;;23.98;12.65;;;;;;;12.34;100.00;101545.00;6273059;28;20056;-77
2021/08/11 03:13:50;;;;;;;22.20;11.85;;;;;;;12.36;100.00;101550.22;6272561;28;20471;-77
2021/08/11 03:16:51;;;;;;;18.90;11.75;;;;;;;12.34;100.00;101555.53;6272707;28;20044;-77
2021/08/11 03:19:53;;;;;;;18.10;11.68;;;;;;;12.38;100.00;101549.22;6272667;28;20045;-77
2021/08/11 03:22:56;;;;;;;19.63;12.00;;;;;;;12.41;100.00;101549.06;6272646;28;20064;-77
2021/08/11 03:25:57;;;;;;;13.02;10.10;;;;;;;12.39;100.00;101553.53;6272218;28;20052;-77
2021/08/11 03:29:00;;;;;;;13.43;11.10;;;;;;;12.40;100.00;101551.78;6272430;28;20056;-77
2021/08/11 03:32:02;;;;;;;15.25;11.30;;;;;;;12.37;100.00;101550.13;6272481;28;20064;-78
2021/08/11 03:35:04;;;;;;;14.45;10.55;;;;;;;12.39;100.00;101552.69;6272075;28;20504;-77
2021/08/11 03:38:07;;;;;;;13.75;10.50;;;;;;;12.37;100.00;101558.03;6272695;28;20045;-77
2021/08/11 03:41:08;;;;;;;14.40;11.07;;;;;;;12.36;100.00;101551.06;6271758;28;20057;-77
2021/08/11 03:44:09;;;;;;;15.63;10.80;;;;;;;12.36;100.00;101560.78;6266504;28;20064;-77
2021/08/11 03:47:11;;;;;;;17.63;11.35;;;;;;;12.37;100.00;101565.09;6257207;28;20052;-78
2021/08/11 03:50:13;;;;;;;15.40;10.75;;;;;;;12.36;100.00;101566.03;6271595;28;20052;-76
2021/08/11 03:53:16;;;;;;;23.95;11.93;;;;;;;12.38;100.00;101569.44;6247392;28;20046;-77
2021/08/11 03:56:17;;;;;;;15.27;11.88;;;;;;;12.39;100.00;101569.34;6232195;28;20053;-77
2021/08/11 03:59:18;;;;;;;28.45;12.18;;;;;;;12.40;100.00;101565.81;6234794;28;20061;-77
2021/08/11 04:02:20;;;;;;;26.08;13.70;;;;;;;12.41;100.00;101564.88;6233919;28;20075;-77
2021/08/11 04:05:21;;;;;;;23.30;12.77;;;;;;;12.42;100.00;101571.84;6237740;28;20064;-77
2021/08/11 04:08:24;;;;;;;16.55;11.50;;;;;;;12.42;100.00;101571.84;6242672;28;20064;-77
2021/08/11 04:11:25;;;;;;;25.95;11.13;;;;;;;12.40;100.00;101570.25;6243273;28;20053;-77
2021/08/11 04:14:27;;;;;;;25.60;11.27;;;;;;;12.39;100.00;101572.00;6240212;28;20042;-78
2021/08/11 04:17:28;;;;;;;17.60;11.77;;;;;;;12.37;100.00;101576.50;6242098;28;20048;-77
2021/08/11 04:20:29;;;;;;;17.70;10.90;;;;;;;12.38;100.00;101578.19;6241555;28;20050;-77
2021/08/11 04:23:32;;;;;;;30.80;10.88;;;;;;;12.36;100.00;101577.44;6241440;28;20653;-77
2021/08/11 04:26:34;;;;;;;47.78;11.60;;;;;;;12.34;100.00;101578.41;6245984;28;20420;-77
2021/08/11 04:29:35;;;;;;;18.25;11.30;;;;;;;12.30;100.00;101585.63;6242022;28;20054;-77
2021/08/11 04:32:36;;;;;;;22.83;11.50;;;;;;;12.32;100.00;101588.19;6242934;28;20046;-77
2021/08/11 04:35:38;;;;;;;33.80;12.27;;;;;;;12.31;100.00;101584.72;6239531;28;20041;-77
2021/08/11 04:38:41;;;;;;;36.13;12.68;;;;;;;12.31;100.00;101594.38;6245842;28;20057;-77
2021/08/11 04:41:43;;;;;;;25.27;10.93;;;;;;;12.27;100.00;101595.47;6247103;28;20049;-77
2021/08/11 04:44:44;;;;;;;27.92;11.43;;;;;;;12.26;100.00;101593.72;6254898;28;20515;-77
2021/08/11 04:47:46;;;;;;;38.53;11.32;;;;;;;12.26;100.00;101596.38;6248080;28;20038;-77
2021/08/11 04:50:47;;;;;;;44.13;12.30;;;;;;;12.21;100.00;101598.38;6238887;28;20595;-77
2021/08/11 04:53:50;;;;;;;24.35;12.50;;;;;;;12.26;100.00;101597.22;6234763;28;20045;-78
2021/08/11 04:56:51;;;;;;;20.17;11.35;;;;;;;12.30;100.00;101597.94;6252114;28;20045;-76
2021/08/11 04:59:53;;;;;;;53.92;12.93;;;;;;;12.33;100.00;101608.34;6255337;28;20053;-77
2021/08/11 05:02:54;;;;;;;34.35;12.05;;;;;;;12.34;100.00;101597.72;6254892;28;20420;-77
2021/08/11 05:05:55;;;;;;;36.13;11.38;;;;;;;12.28;100.00;101594.53;6254633;28;20060;-77
2021/08/11 05:08:58;;;;;;;42.33;11.25;;;;;;;12.25;100.00;101600.78;6254638;28;20045;-77
2021/08/11 05:11:59;;;;;;;20.00;11.35;;;;;;;12.28;100.00;101605.94;6254853;28;20056;-77
2021/08/11 05:15:01;;;;;;;49.47;13.02;;;;;;;12.34;100.00;101615.31;6254350;28;20053;-77
2021/08/11 05:18:03;;;;;;;47.03;12.98;;;;;;;12.30;100.00;101609.34;6250457;28;20072;-77
2021/08/11 05:21:05;;;;;;;39.50;12.43;;;;;;;12.32;100.00;101601.38;6250379;28;20053;-77
2021/08/11 05:24:08;;;;;;;29.83;12.98;;;;;;;12.36;100.00;101606.44;6250339;28;20072;-77
2021/08/11 05:27:09;;;;;;;28.15;12.75;;;;;;;12.44;100.00;101606.94;6250383;28;20045;-77
2021/08/11 05:30:12;;;;;;;30.77;12.93;;;;;;;12.50;100.00;101608.41;6250609;28;20065;-77
2021/08/11 05:33:13;;;;;;;32.70;13.52;;;;;;;12.57;100.00;101611.59;6250098;28;20050;-77
2021/08/11 05:36:15;;;;;;;35.58;14.27;;;;;;;12.59;100.00;101613.25;6249963;28;20057;-77
2021/08/11 05:39:17;;;;;;;39.25;15.20;;;;;;;12.62;100.00;101609.59;6250395;28;20060;-77
2021/08/11 05:42:19;;;;;;;35.25;14.45;;;;;;;12.67;100.00;101610.22;6250199;28;20052;-77
2021/08/11 05:45:20;;;;;;;54.88;14.70;;;;;;;12.73;100.00;101603.81;6249825;28;20403;-78
2021/08/11 05:48:23;;;;;;;46.45;13.90;;;;;;;12.78;100.00;101602.66;6250339;28;20045;-77
2021/08/11 05:51:24;;;;;;;32.75;16.23;;;;;;;12.83;100.00;101613.84;6250113;28;20046;-77
2021/08/11 05:54:27;;;;;;;41.35;15.52;;;;;;;12.87;100.00;101606.63;6249762;28;20484;-77
2021/08/11 05:57:30;;;;;;;41.55;15.43;;;;;;;12.91;100.00;101610.84;6250214;28;20053;-78
2021/08/11 06:00:31;;;;;;;36.92;15.80;;;;;;;12.99;100.00;101616.59;6250082;28;20064;-77
2021/08/11 06:03:33;;;;;;;30.27;18.42;;;;;;;13.06;100.00;101614.50;6249850;28;20052;-77
2021/08/11 06:06:34;;;;;;;37.53;18.92;;;;;;;13.12;100.00;101622.94;6249851;28;20484;-77
2021/08/11 06:09:37;;;;;;;57.60;21.55;;;;;;;13.20;100.00;101625.19;6249957;28;20056;-77
2021/08/11 06:12:38;;;;;;;41.92;22.10;;;;;;;13.26;100.00;101629.34;6250119;28;20488;-78
2021/08/11 06:15:39;;;;;;;43.58;23.48;;;;;;;13.35;100.00;101623.59;6249313;28;20057;-77
2021/08/11 06:18:41;;;;;;;53.30;23.15;;;;;;;13.41;100.00;101633.88;6249947;28;20053;-77
2021/08/11 06:21:42;;;;;;;55.15;26.13;;;;;;;13.47;100.00;101640.63;6248894;28;20417;-76
2021/08/11 06:24:45;;;;;;;55.08;26.38;;;;;;;13.50;100.00;101651.03;6250030;28;20056;-78
2021/08/11 06:27:46;;;;;;;63.90;27.02;;;;;;;13.50;100.00;101653.69;6249366;28;20432;-77
2021/08/11 06:30:48;;;;;;;61.15;27.55;;;;;;;13.54;100.00;101660.50;6250154;28;20496;-78
2021/08/11 06:33:49;;;;;;;75.32;27.98;;;;;;;13.58;100.00;101656.75;6249366;28;20050;-78
2021/08/11 06:36:51;;;;;;;60.20;27.27;;;;;;;13.56;100.00;101658.63;6249804;28;20056;-78
2021/08/11 06:39:53;;;;;;;58.33;26.95;;;;;;;13.64;100.00;101662.59;6249931;28;20060;-78
2021/08/11 06:42:55;;;;;;;63.15;30.58;;;;;;;13.74;100.00;101660.31;6250509;28;20053;-78
2021/08/11 06:45:56;;;;;;;64.38;29.75;;;;;;;13.66;100.00;101663.34;6249104;28;20496;-77
2021/08/11 06:48:57;;;;;;;69.80;30.70;;;;;;;13.65;100.00;101664.28;6249490;28;20137;-78
2021/08/11 06:51:59;;;;;;;66.63;32.40;;;;;;;13.66;100.00;101670.44;6249343;28;20049;-78
2021/08/11 06:55:03;;;;;;;59.08;29.33;;;;;;;13.63;100.00;101666.16;6242401;28;20045;-77
2021/08/11 06:58:05;;;;;;;62.35;31.67;;;;;;;13.68;100.00;101674.72;6260123;28;20123;-78
2021/08/11 07:01:06;;;;;;;65.18;30.25;;;;;;;13.64;100.00;101674.94;6265489;28;20075;-78
2021/08/11 07:04:08;;;;;;;60.53;29.95;;;;;;;13.73;100.00;101685.03;6273969;28;20045;-77
2021/08/11 07:07:09;;;;;;;64.28;30.20;;;;;;;13.80;100.00;101689.06;6273314;28;20052;-77
2021/08/11 07:10:14;;;;;;;61.28;30.20;;;;;;;13.85;100.00;101680.88;6273703;28;20053;-78
2021/08/11 07:13:16;;;;;;;67.00;32.05;;;;;;;13.90;100.00;101678.88;6273820;28;20045;-77
2021/08/11 07:16:18;;;;;;;58.85;29.67;;;;;;;14.09;100.00;101686.69;6266781;28;20064;-78
2021/08/11 07:19:20;;;;;;;64.10;31.45;;;;;;;14.25;100.00;101686.72;6268308;28;20052;-77
2021/08/11 07:22:22;;;;;;;66.47;32.78;;;;;;;14.31;100.00;101684.63;6273739;28;20492;-78
2021/08/11 07:25:25;;;;;;;55.40;30.88;;;;;;;14.39;100.00;101684.19;6257905;28;20057;-78
2021/08/11 07:28:26;;;;;;;57.30;30.52;;;;;;;14.45;100.00;101689.16;6258691;28;20045;-78
2021/08/11 07:31:28;;;;;;;56.40;31.38;;;;;;;14.50;100.00;101683.66;6265470;28;20052;-78
2021/08/11 07:34:29;;;;;;;53.20;29.77;;;;;;;14.59;100.00;101685.78;6247404;28;20045;-79
2021/08/11 07:37:30;;;;;;;55.55;30.42;;;;;;;14.68;100.00;101686.13;6248374;28;20049;-76
2021/08/11 07:40:35;;;;;;;56.55;29.33;;;;;;;14.83;100.00;101697.66;6231309;28;20531;-76
2021/08/11 07:43:36;;;;;;;53.90;27.25;;;;;;;14.93;100.00;101698.81;6229374;28;20048;-76
2021/08/11 07:46:37;;;;;;;51.42;28.42;;;;;;;15.04;100.00;101692.09;6240600;28;20056;-76
2021/08/11 07:49:39;;;;;;;43.10;25.83;;;;;;;15.12;100.00;101692.50;6247101;28;20056;-77
2021/08/11 07:52:40;;;;;;;43.90;24.88;;;;;;;15.30;100.00;101687.94;6237585;28;20525;-76
2021/08/11 07:55:43;;;;;;;38.88;24.77;;;;;;;15.33;100.00;101695.72;6222051;28;20049;-76
2021/08/11 07:58:44;;;;;;;52.45;27.40;;;;;;;15.37;100.00;101698.09;6222323;28;20042;-75
2021/08/11 08:01:46;;;;;;;37.70;24.35;;;;;;;15.43;100.00;101696.88;6222195;28;20060;-77
2021/08/11 08:04:47;;;;;;;39.60;24.92;;;;;;;15.46;100.00;101716.09;6222385;28;20101;-75
2021/08/11 08:07:49;;;;;;;39.10;22.13;;;;;;;15.48;100.00;101710.69;6245546;28;20480;-76
2021/08/11 08:10:51;;;;;;;34.35;21.40;;;;;;;15.54;100.00;101712.16;6260065;28;20056;-76
2021/08/11 08:13:53;;;;;;;35.10;21.17;;;;;;;15.59;100.00;101713.59;6245535;28;20045;-75
2021/08/11 08:16:54;;;;;;;35.47;19.92;;;;;;;15.58;100.00;101714.53;6246763;28;20045;-76
2021/08/11 08:19:55;;;;;;;28.40;19.80;;;;;;;15.63;100.00;101712.47;6246294;28;20052;-76
2021/08/11 08:22:57;;;;;;;30.73;19.65;;;;;;;15.67;100.00;101716.69;6246255;28;20120;-75
2021/08/11 08:26:00;;;;;;;31.63;19.80;;;;;;;15.74;100.00;101706.53;6245394;28;20064;-76
2021/08/11 08:29:03;;;;;;;30.98;18.95;;;;;;;15.81;100.00;101709.69;6245621;28;20505;-76
2021/08/11 08:32:05;;;;;;;30.52;18.17;;;;;;;15.87;100.00;101712.81;6246348;28;20144;-76
2021/08/11 08:35:07;;;;;;;29.98;16.13;;;;;;;15.98;100.00;101713.00;6245566;28;20148;-77
2021/08/11 08:38:09;;;;;;;24.98;14.23;;;;;;;16.04;100.00;101709.16;6246474;28;20041;-75
2021/08/11 08:41:13;;;;;;;28.63;15.57;;;;;;;16.03;100.00;101710.09;6246414;28;20045;-77
2021/08/11 08:44:14;;;;;;;27.42;15.07;;;;;;;16.14;100.00;101704.16;6227852;28;20046;-77
2021/08/11 08:47:17;;;;;;;23.02;13.32;;;;;;;16.15;100.00;101714.66;6229463;28;20073;-77
2021/08/11 08:50:19;;;;;;;18.42;11.02;;;;;;;16.24;100.00;101718.53;6223870;28;20216;-78
2021/08/11 08:53:22;;;;;;;20.90;11.38;;;;;;;16.22;100.00;101705.38;6250299;28;20050;-77
2021/08/11 08:56:25;;;;;;;19.90;11.93;;;;;;;16.29;100.00;101707.66;6250742;28;20424;-79
2021/08/11 08:59:26;;;;;;;20.83;12.43;;;;;;;16.39;100.00;101709.63;6253308;28;20049;-78
2021/08/11 09:02:27;;;;;;;19.92;11.23;;;;;;;16.46;100.00;101712.75;6253355;28;20045;-75
2021/08/11 09:05:29;;;;;;;18.90;11.43;;;;;;;16.59;100.00;101716.34;6265676;28;20056;-81
2021/08/11 09:08:30;;;;;;;19.77;10.80;;;;;;;16.66;100.00;101719.44;6266938;28;20055;-74
2021/08/11 09:11:34;;;;;;;19.35;9.70;;;;;;;16.87;100.00;101714.63;6275352;28;20444;-78
2021/08/11 09:14:37;;;;;;;12.82;8.38;;;;;;;16.86;100.00;101707.63;6274249;28;20060;-77
2021/08/11 09:17:39;;;;;;;14.75;7.55;;;;;;;16.91;100.00;101703.69;6275834;28;20056;-78
2021/08/11 09:20:42;;;;;;;12.65;7.18;;;;;;;16.99;100.00;101706.72;6275915;28;20041;-77
2021/08/11 09:23:46;;;;;;;14.23;6.78;;;;;;;17.00;100.00;101707.56;6275510;28;20063;-80
2021/08/11 09:26:48;;;;;;;12.75;7.22;;;;;;;17.03;99.80;101707.34;6274901;28;20049;-77
2021/08/11 09:30:08;;;;;;;15.30;7.30;;;;;;;17.13;100.00;101713.78;6277182;28;20052;-79
2021/08/11 09:33:09;;;;;;;14.10;8.02;;;;;;;17.12;99.97;101721.84;6276309;28;20053;-79
2021/08/11 09:36:13;;;;;;;12.43;8.23;;;;;;;17.11;100.00;101718.34;6277079;28;20060;-79
2021/08/11 09:39:14;;;;;;;21.23;8.13;;;;;;;17.14;98.21;101712.81;6276878;28;20052;-79
2021/08/11 09:42:17;;;;;;;13.75;7.57;;;;;;;17.15;100.00;101706.56;6278388;28;20412;-78
2021/08/11 09:45:18;;;;;;;16.30;7.18;;;;;;;17.21;100.00;101706.16;6277875;28;20045;-80
2021/08/11 09:48:20;;;;;;;15.85;7.88;;;;;;;17.32;100.00;101696.63;6277006;28;20041;-79
2021/08/11 09:51:22;;;;;;;14.20;6.95;;;;;;;17.45;98.51;101694.88;6275799;28;20057;-80
2021/08/11 09:54:23;;;;;;;14.05;6.43;;;;;;;17.57;97.03;101704.66;6275532;28;20060;-79
2021/08/11 09:57:29;;;;;;;11.10;7.03;;;;;;;17.75;92.96;101710.56;6275256;28;20045;-78
2021/08/11 10:00:39;;;;;;;13.52;6.43;;;;;;;17.70;95.76;101708.19;6276395;28;20049;-80
2021/08/11 10:03:55;;;;;;;11.35;6.03;;;;;;;17.87;94.58;101707.06;6274958;28;20416;-80
2021/08/11 10:07:08;;;;;;;12.95;6.07;;;;;;;18.01;90.98;101700.78;6276158;28;20051;-80
2021/08/11 10:10:11;;;;;;;13.40;7.57;;;;;;;17.97;92.46;101717.91;6275255;28;20045;-78
2021/08/11 10:13:16;;;;;;;14.25;7.75;;;;;;;17.99;92.54;101718.69;6275185;28;20060;-77
2021/08/11 10:16:18;;;;;;;13.35;8.15;;;;;;;18.15;96.59;101714.00;6275112;28;20049;-78
2021/08/11 10:19:23;;;;;;;14.48;7.90;;;;;;;18.24;98.38;101709.84;6275593;28;20488;-78
2021/08/11 10:22:26;;;;;;;14.82;9.52;;;;;;;18.50;97.13;101721.31;6275007;28;20048;-81
2021/08/11 10:25:27;;;;;;;12.93;8.60;;;;;;;18.57;92.24;101725.22;6274939;28;20060;-78
2021/08/11 10:28:30;;;;;;;17.52;8.88;;;;;;;18.61;93.53;101716.06;6272745;28;20056;-74
2021/08/11 10:31:32;;;;;;;13.65;7.72;;;;;;;18.65;96.33;101719.34;6259963;28;20052;-79
2021/08/11 10:34:34;;;;;;;13.90;8.18;;;;;;;18.72;88.91;101718.84;6258755;28;20049;-81
2021/08/11 10:37:37;;;;;;;14.70;7.32;;;;;;;18.66;90.63;101721.03;6247958;28;20951;-76
2021/08/11 10:40:40;;;;;;;17.27;8.45;;;;;;;18.88;90.38;101720.38;6243670;28;20045;-78
2021/08/11 10:43:44;;;;;;;11.95;6.75;;;;;;;18.92;90.24;101714.72;6260538;28;20048;-76
2021/08/11 10:46:49;;;;;;;12.00;5.63;;;;;;;19.03;91.09;101716.63;6253098;28;20053;-76
2021/08/11 10:49:52;;;;;;;11.68;6.53;;;;;;;19.26;91.08;101717.56;6249675;28;20045;-77
2021/08/11 10:53:09;;;;;;;15.88;7.97;;;;;;;19.42;88.94;101719.94;6248128;28;20053;-77
2021/08/11 10:56:10;;;;;;;12.20;7.43;;;;;;;19.55;83.82;101715.38;6221972;28;20068;-79
2021/08/11 10:59:46;;;;;;;12.35;7.35;;;;;;;19.46;83.48;101713.41;6229303;28;20049;-77
2021/08/11 11:02:49;;;;;;;13.75;7.70;;;;;;;19.55;83.17;101706.53;6225057;28;20046;-79
2021/08/11 11:05:54;;;;;;;10.15;6.88;;;;;;;19.75;84.09;101716.53;6227913;28;20681;-77
2021/08/11 11:09:16;;;;;;;14.95;7.97;;;;;;;19.60;84.29;101712.38;6228266;28;20612;-77
2021/08/11 11:12:38;;;;;;;9.48;6.07;;;;;;;19.66;84.71;101717.25;6248200;28;20076;-79
2021/08/11 11:15:54;;;;;;;9.23;5.90;;;;;;;19.78;80.21;101716.31;6248368;28;20049;-77
2021/08/11 11:19:08;;;;;;;8.68;5.28;;;;;;;19.96;80.37;101719.41;6250592;28;20049;-77
2021/08/11 11:22:34;;;;;;;10.70;5.50;;;;;;;20.23;83.85;101725.25;6249863;28;20533;-77
2021/08/11 11:26:09;;;;;;;10.70;5.72;;;;;;;20.50;73.71;101724.06;6257308;28;20546;-80
2021/08/11 11:29:11;;;;;;;11.25;6.60;;;;;;;20.34;73.47;101719.03;6258448;28;20508;-79
2021/08/11 11:32:25;;;;;;;11.52;6.03;;;;;;;19.99;77.71;101724.50;6256064;28;20057;-79
2021/08/11 11:35:28;;;;;;;9.50;6.32;;;;;;;19.98;77.11;101720.09;6253861;28;20077;-78
2021/08/11 11:38:29;;;;;;;10.07;5.35;;;;;;;19.74;79.90;101722.84;6254872;28;20069;-76
2021/08/11 11:41:31;;;;;;;10.38;5.32;;;;;;;20.00;76.63;101712.84;6255861;28;20053;-79
2021/08/11 11:44:46;;;;;;;6.25;4.32;;;;;;;20.31;77.87;101707.78;6254968;28;20064;-78
2021/08/11 11:48:14;;;;;;;9.43;4.60;;;;;;;20.96;76.18;101712.34;6257526;28;20049;-80
2021/08/11 11:51:15;;;;;;;9.02;4.60;;;;;;;20.75;75.81;101714.91;6253972;28;20053;-78
2021/08/11 11:54:17;;;;;;;9.25;5.32;;;;;;;20.56;74.86;101706.69;6251425;28;20045;-79
2021/08/11 11:57:18;;;;;;;7.88;4.60;;;;;;;20.76;72.53;101706.81;6251841;28;20076;-80
2021/08/11 12:00:20;;;;;;;9.05;4.90;;;;;;;20.90;70.69;101705.69;6250586;28;20072;-77
2021/08/11 12:03:33;;;;;;;8.63;4.13;;;;;;;21.28;67.97;101701.66;6251890;28;20045;-80
2021/08/11 12:06:37;;;;;;;11.52;4.13;;;;;;;21.78;69.93;101696.56;6257320;28;20053;-81
2021/08/11 12:09:45;;;;;;;7.47;3.80;;;;;;;22.14;68.95;101695.25;6256297;28;20049;-77
2021/08/11 12:12:54;;;;;;;11.63;4.13;;;;;;;22.49;66.59;101699.34;6256582;28;20057;-79
2021/08/11 12:15:57;;;;;;;6.72;3.63;;;;;;;22.89;68.66;101688.59;6257744;28;20053;-80
2021/08/11 12:19:10;;;;;;;12.10;4.25;;;;;;;22.81;61.48;101695.63;6254011;28;20444;-76
2021/08/11 12:22:32;;;;;;;12.63;3.75;;;;;;;22.87;61.89;101700.41;6247810;28;20060;-79
2021/08/11 12:25:34;;;;;;;7.70;3.15;;;;;;;23.01;62.46;101695.50;6246990;28;20049;-77
2021/08/11 12:28:37;;;;;;;6.57;3.78;;;;;;;23.04;61.78;101697.09;6257189;28;20045;-78
2021/08/11 12:31:40;;;;;;;6.20;2.90;;;;;;;23.08;60.77;101693.13;6258954;28;20056;-79
2021/08/11 12:34:46;;;;;;;4.10;3.17;;;;;;;23.35;59.90;101688.91;6256352;28;20053;-78
2021/08/11 12:37:47;;;;;;;7.90;3.17;;;;;;;23.34;61.65;101688.03;6257188;28;20049;-80
2021/08/11 12:40:49;;;;;;;6.15;2.88;;;;;;;23.43;62.29;101689.03;6255161;28;20127;-78
2021/08/11 12:43:51;;;;;;;8.13;3.00;;;;;;;23.64;61.79;101691.56;6252726;28;20060;-77
2021/08/11 12:46:56;;;;;;;5.13;2.85;;;;;;;23.76;59.17;101685.06;6252332;28;20512;-76
2021/08/11 12:50:16;;;;;;;4.53;2.70;;;;;;;23.89;63.66;101684.72;6251345;28;20045;-77
2021/08/11 12:53:23;;;;;;;4.03;2.50;;;;;;;23.87;57.26;101684.03;6251978;28;20412;-77
2021/08/11 12:56:24;;;;;;;6.25;3.30;;;;;;;23.90;55.61;101684.59;6251234;28;20199;-77
2021/08/11 12:59:47;;;;;;;3.72;2.22;;;;;;;23.94;58.70;101688.69;6252421;28;20053;-77
2021/08/11 13:02:59;;;;;;;5.28;2.30;;;;;;;23.72;59.49;101687.19;6252269;28;20497;-78
2021/08/11 13:06:02;;;;;;;4.93;2.50;;;;;;;23.67;58.78;101683.25;6252432;28;20052;-77
2021/08/11 13:09:05;;;;;;;6.05;2.92;;;;;;;23.92;55.54;101681.75;6251609;28;20054;-76
2021/08/11 13:12:08;;;;;;;7.32;2.45;;;;;;;23.73;58.04;101688.88;6251969;28;20131;-77
2021/08/11 13:15:24;;;;;;;4.00;2.40;;;;;;;24.02;54.74;101696.84;6249894;28;20418;-75
2021/08/11 13:18:26;;;;;;;5.38;2.60;;;;;;;24.22;54.28;101680.69;6250451;28;20049;-75
2021/08/11 13:21:46;;;;;;;4.40;2.35;;;;;;;24.09;55.59;101688.22;6249231;28;20053;-77
2021/08/11 13:24:48;;;;;;;5.88;2.60;;;;;;;24.36;54.71;101684.72;6233972;28;20049;-75
2021/08/11 13:27:52;;;;;;;5.13;2.30;;;;;;;24.34;53.20;101682.16;6250788;28;20053;-77
2021/08/11 13:30:54;;;;;;;7.35;2.17;;;;;;;24.18;54.87;101687.34;6250921;28;20389;-77
2021/08/11 13:33:55;;;;;;;4.40;2.38;;;;;;;24.38;56.31;101688.13;6247703;28;20052;-77
2021/08/11 13:36:57;;;;;;;4.90;2.25;;;;;;;24.67;53.71;101694.19;6234770;28;20493;-77
2021/08/11 13:39:59;;;;;;;6.18;2.97;;;;;;;24.63;51.45;101684.75;6244064;28;20052;-74
2021/08/11 13:43:01;;;;;;;4.10;2.20;;;;;;;24.24;51.66;101684.03;6243199;28;20048;-78
2021/08/11 13:46:03;;;;;;;7.25;2.30;;;;;;;23.61;53.92;101679.25;6245383;28;20129;-76
2021/08/11 13:49:05;;;;;;;4.43;2.60;;;;;;;23.23;56.34;101672.94;6250437;28;20041;-77
2021/08/11 13:52:07;;;;;;;13.43;2.90;;;;;;;23.02;59.59;101672.22;6251504;28;20053;-76